| time (UTC) | temp F | wind direction | speed knots | gust knots | rain 1hr in | rain 24hr in | rain mn in | humidity % | barometer mb |
| 20260505113519 | 81 | 113 | 3.5 | 6.1 | 0.00 | 0.03 | 0.00 | 82 | 1017.0 |
| 20260505113032 | 81 | 112 | 3.5 | 6.1 | 0.00 | 0.03 | 0.00 | 82 | 1017.1 |
| 20260505112517 | 81 | 125 | 2.6 | 6.1 | 0.00 | 0.03 | 0.00 | 82 | 1017.0 |
| 20260505112018 | 81 | 98 | 3.5 | 7.0 | 0.00 | 0.03 | 0.00 | 82 | 1017.0 |
| 20260505111538 | 81 | 136 | 3.5 | 7.8 | 0.00 | 0.03 | 0.00 | 83 | 1016.7 |
| 20260505111017 | 81 | 108 | 2.6 | 7.8 | 0.00 | 0.03 | 0.00 | 84 | 1016.8 |
| 20260505110517 | 80 | 130 | 2.6 | 7.8 | 0.00 | 0.03 | 0.00 | 84 | 1016.8 |
| 20260505102017 | 76 | 0 | 0.0 | 0.0 | 0.00 | 0.03 | 0.00 | 92 | 1016.6 |
| 20260505101536 | 76 | 0 | 0.0 | 0.0 | 0.00 | 0.03 | 0.00 | 92 | 1016.6 |
| 20260505101017 | 76 | 0 | 0.0 | 0.0 | 0.00 | 0.03 | 0.00 | 92 | 1016.4 |
| 20260505100518 | 76 | 0 | 0.0 | 0.0 | 0.00 | 0.03 | 0.00 | 92 | 1016.3 |
| 20260505100036 | 76 | 0 | 0.0 | 0.0 | 0.00 | 0.03 | 0.00 | 92 | 1016.3 |
| 20260505095517 | 76 | 0 | 0.0 | 0.0 | 0.00 | 0.03 | 0.00 | 91 | 1016.3 |
| 20260505095019 | 76 | 0 | 0.0 | 0.0 | 0.00 | 0.03 | 0.00 | 91 | 1016.3 |
| 20260505094532 | 76 | 0 | 0.0 | 0.0 | 0.00 | 0.03 | 0.00 | 91 | 1016.3 |
| 20260505094017 | 75 | 0 | 0.0 | 0.0 | 0.00 | 0.03 | 0.00 | 91 | 1016.4 |
| 20260505093518 | 76 | 0 | 0.0 | 0.0 | 0.00 | 0.03 | 0.00 | 91 | 1016.4 |
| 20260505093037 | 76 | 0 | 0.0 | 0.0 | 0.00 | 0.03 | 0.00 | 91 | 1016.4 |
| 20260505092519 | 76 | 0 | 0.0 | 0.0 | 0.00 | 0.03 | 0.00 | 91 | 1016.4 |
| 20260505092017 | 76 | 0 | 0.0 | 0.0 | 0.00 | 0.03 | 0.00 | 91 | 1016.3 |
| 20260505091533 | 76 | 0 | 0.0 | 0.0 | 0.00 | 0.03 | 0.00 | 91 | 1016.2 |
| 20260505091019 | 76 | 0 | 0.0 | 0.0 | 0.00 | 0.03 | 0.00 | 91 | 1016.2 |
| 20260505090517 | 76 | 0 | 0.0 | 0.0 | 0.00 | 0.03 | 0.00 | 91 | 1016.2 |
| 20260505090031 | 76 | 0 | 0.0 | 0.0 | 0.00 | 0.03 | 0.00 | 91 | 1016.1 |
| 20260505085517 | 76 | 0 | 0.0 | 0.0 | 0.00 | 0.03 | 0.00 | 91 | 1016.2 |
| 20260505085017 | 76 | 0 | 0.0 | 0.0 | 0.00 | 0.03 | 0.00 | 91 | 1016.1 |
| 20260505084532 | 76 | 0 | 0.0 | 0.0 | 0.00 | 0.03 | 0.00 | 91 | 1016.2 |
| 20260505084019 | 76 | 0 | 0.0 | 0.0 | 0.00 | 0.03 | 0.00 | 91 | 1016.1 |
| 20260505083516 | 76 | 0 | 0.0 | 0.0 | 0.00 | 0.03 | 0.00 | 91 | 1016.0 |
| 20260505083035 | 76 | 0 | 0.0 | 0.0 | 0.00 | 0.03 | 0.00 | 91 | 1016.1 |
| 20260505082517 | 76 | 0 | 0.0 | 0.0 | 0.00 | 0.03 | 0.00 | 90 | 1016.0 |
| 20260505082017 | 76 | 0 | 0.0 | 0.0 | 0.00 | 0.03 | 0.00 | 90 | 1016.0 |
| 20260505081537 | 76 | 0 | 0.0 | 0.0 | 0.00 | 0.03 | 0.00 | 90 | 1015.9 |
| 20260505081017 | 76 | 0 | 0.0 | 0.0 | 0.00 | 0.03 | 0.00 | 90 | 1016.0 |
| 20260505080517 | 76 | 0 | 0.0 | 0.0 | 0.00 | 0.03 | 0.00 | 90 | 1016.0 |
| 20260505080034 | 76 | 0 | 0.0 | 0.0 | 0.00 | 0.03 | 0.00 | 90 | 1015.8 |
| 20260505075516 | 76 | 0 | 0.0 | 0.0 | 0.00 | 0.03 | 0.00 | 89 | 1015.8 |
| 20260505075019 | 77 | 0 | 0.0 | 0.0 | 0.00 | 0.03 | 0.00 | 89 | 1015.8 |
| 20260505074532 | 77 | 0 | 0.0 | 0.0 | 0.00 | 0.03 | 0.00 | 88 | 1015.8 |
| 20260505074017 | 77 | 0 | 0.0 | 0.0 | 0.00 | 0.03 | 0.00 | 87 | 1015.9 |
| 20260505073517 | 77 | 0 | 0.0 | 0.0 | 0.00 | 0.03 | 0.00 | 86 | 1015.8 |
| 20260505073034 | 78 | 0 | 0.0 | 0.0 | 0.00 | 0.03 | 0.00 | 85 | 1015.6 |
| 20260505072521 | 79 | 0 | 0.0 | 0.0 | 0.00 | 0.03 | 0.00 | 85 | 1015.7 |
| 20260505072019 | 79 | 0 | 0.0 | 0.0 | 0.00 | 0.03 | 0.00 | 85 | 1015.7 |
| 20260505071530 | 79 | 0 | 0.0 | 0.0 | 0.00 | 0.03 | 0.00 | 85 | 1015.7 |
| 20260505071017 | 79 | 0 | 0.0 | 0.0 | 0.00 | 0.03 | 0.00 | 85 | 1015.7 |
| 20260505070521 | 79 | 0 | 0.0 | 0.0 | 0.00 | 0.03 | 0.00 | 85 | 1015.7 |
| 20260505070037 | 79 | 0 | 0.0 | 0.0 | 0.00 | 0.03 | 0.00 | 85 | 1015.8 |
| 20260505065520 | 79 | 0 | 0.0 | 0.0 | 0.00 | 0.03 | 0.00 | 85 | 1015.6 |
| 20260505065016 | 79 | 0 | 0.0 | 0.0 | 0.00 | 0.03 | 0.00 | 85 | 1015.8 |
| 20260505064535 | 79 | 0 | 0.0 | 0.0 | 0.00 | 0.03 | 0.00 | 85 | 1015.8 |
| 20260505064016 | 79 | 0 | 0.0 | 0.0 | 0.00 | 0.03 | 0.00 | 85 | 1015.9 |
| 20260505063516 | 79 | 0 | 0.0 | 0.0 | 0.00 | 0.03 | 0.00 | 85 | 1015.8 |
| 20260505063032 | 79 | 0 | 0.0 | 0.0 | 0.00 | 0.03 | 0.00 | 85 | 1015.9 |
| 20260505062521 | 79 | 0 | 0.0 | 0.0 | 0.00 | 0.03 | 0.00 | 85 | 1015.9 |
| 20260505062016 | 79 | 0 | 0.0 | 0.0 | 0.00 | 0.03 | 0.00 | 85 | 1015.9 |
| 20260505061549 | 79 | 0 | 0.0 | 0.0 | 0.00 | 0.03 | 0.00 | 85 | 1015.9 |
| 20260505061017 | 79 | 0 | 0.0 | 0.0 | 0.00 | 0.03 | 0.00 | 85 | 1016.0 |
| 20260505060521 | 79 | 0 | 0.0 | 0.0 | 0.00 | 0.03 | 0.00 | 85 | 1016.1 |
| 20260505060036 | 79 | 0 | 0.0 | 0.0 | 0.00 | 0.03 | 0.00 | 85 | 1016.1 |
| 20260505055520 | 79 | 0 | 0.0 | 0.0 | 0.00 | 0.03 | 0.00 | 85 | 1016.3 |
| 20260505055017 | 79 | 0 | 0.0 | 0.0 | 0.00 | 0.03 | 0.00 | 85 | 1016.4 |
| 20260505054536 | 79 | 0 | 0.0 | 0.0 | 0.00 | 0.03 | 0.00 | 85 | 1016.4 |
| 20260505054018 | 79 | 0 | 0.0 | 0.0 | 0.00 | 0.03 | 0.00 | 85 | 1016.5 |
| 20260505053516 | 79 | 0 | 0.0 | 0.0 | 0.00 | 0.03 | 0.00 | 85 | 1016.5 |
| 20260505053041 | 79 | 0 | 0.0 | 0.0 | 0.00 | 0.03 | 0.00 | 85 | 1016.6 |
| 20260505052516 | 79 | 0 | 0.0 | 0.0 | 0.00 | 0.03 | 0.00 | 85 | 1016.7 |
| 20260505052017 | 79 | 0 | 0.0 | 0.0 | 0.00 | 0.03 | 0.00 | 85 | 1016.7 |
| 20260505051554 | 79 | 0 | 0.0 | 0.0 | 0.00 | 0.03 | 0.00 | 86 | 1016.7 |
| 20260505051021 | 79 | 0 | 0.0 | 0.0 | 0.00 | 0.03 | 0.00 | 86 | 1016.7 |
| 20260505050517 | 79 | 0 | 0.0 | 0.0 | 0.00 | 0.03 | 0.00 | 87 | 1016.7 |
| 20260505041533 | 79 | 0 | 0.0 | 0.0 | 0.00 | 0.03 | 0.00 | 84 | 1017.1 |
| 20260505041016 | 79 | 0 | 0.0 | 0.0 | 0.00 | 0.03 | 0.00 | 84 | 1017.1 |
| 20260505040516 | 79 | 0 | 0.0 | 0.9 | 0.00 | 0.03 | 0.00 | 84 | 1017.1 |
| 20260505040035 | 79 | 0 | 0.0 | 0.9 | 0.00 | 0.03 | 0.00 | 85 | 1017.2 |
| 20260505035516 | 79 | 0 | 0.0 | 0.9 | 0.00 | 0.03 | 0.03 | 85 | 1017.3 |
| 20260505035017 | 79 | 0 | 0.0 | 0.0 | 0.00 | 0.03 | 0.03 | 86 | 1017.3 |
| 20260505034532 | 79 | 0 | 0.0 | 0.0 | 0.00 | 0.03 | 0.03 | 87 | 1017.4 |
| 20260505034016 | 79 | 0 | 0.0 | 0.0 | 0.00 | 0.03 | 0.03 | 87 | 1017.4 |
| 20260505033517 | 79 | 0 | 0.0 | 0.0 | 0.00 | 0.03 | 0.03 | 88 | 1017.5 |
| 20260505033031 | 78 | 0 | 0.0 | 0.0 | 0.00 | 0.03 | 0.03 | 88 | 1017.5 |
| 20260505032516 | 78 | 0 | 0.0 | 0.0 | 0.00 | 0.03 | 0.03 | 89 | 1017.4 |
| 20260505032015 | 78 | 0 | 0.0 | 0.0 | 0.00 | 0.03 | 0.03 | 89 | 1017.3 |
| 20260505031532 | 78 | 0 | 0.0 | 0.0 | 0.00 | 0.03 | 0.03 | 90 | 1017.4 |
| 20260505031016 | 78 | 0 | 0.0 | 0.0 | 0.00 | 0.03 | 0.03 | 89 | 1017.4 |
| 20260505030517 | 78 | 0 | 0.0 | 0.0 | 0.00 | 0.03 | 0.03 | 89 | 1017.3 |
| 20260505030035 | 78 | 0 | 0.0 | 0.0 | 0.00 | 0.03 | 0.03 | 89 | 1017.3 |
| 20260505025517 | 78 | 0 | 0.0 | 0.0 | 0.00 | 0.03 | 0.03 | 89 | 1017.3 |
| 20260505025016 | 78 | 0 | 0.0 | 0.0 | 0.00 | 0.03 | 0.03 | 88 | 1017.4 |
| 20260505024533 | 79 | 0 | 0.0 | 0.0 | 0.00 | 0.03 | 0.03 | 88 | 1017.3 |
| 20260505024016 | 79 | 0 | 0.0 | 0.0 | 0.00 | 0.03 | 0.03 | 87 | 1017.3 |
| 20260505023516 | 80 | 0 | 0.0 | 0.0 | 0.00 | 0.03 | 0.03 | 86 | 1017.3 |
| 20260505023031 | 80 | 0 | 0.0 | 0.0 | 0.00 | 0.03 | 0.03 | 87 | 1017.3 |
| 20260505022516 | 80 | 0 | 0.0 | 0.0 | 0.00 | 0.03 | 0.03 | 87 | 1017.3 |
| 20260505022017 | 80 | 0 | 0.0 | 0.0 | 0.00 | 0.03 | 0.03 | 87 | 1017.4 |
| 20260505021530 | 80 | 0 | 0.0 | 0.0 | 0.00 | 0.03 | 0.03 | 87 | 1017.4 |
| 20260505021016 | 80 | 0 | 0.0 | 0.0 | 0.00 | 0.03 | 0.03 | 87 | 1017.3 |
| 20260505020517 | 79 | 0 | 0.0 | 0.0 | 0.01 | 0.03 | 0.03 | 87 | 1017.4 |
| 20260505020030 | 79 | 0 | 0.0 | 0.0 | 0.02 | 0.03 | 0.03 | 87 | 1017.3 |
| 20260505015514 | 79 | 0 | 0.0 | 0.0 | 0.02 | 0.03 | 0.03 | 89 | 1017.3 |
| 20260505015014 | 79 | 0 | 0.0 | 0.0 | 0.02 | 0.03 | 0.03 | 88 | 1017.3 |
| 20260505014532 | 79 | 0 | 0.0 | 0.0 | 0.02 | 0.03 | 0.03 | 88 | 1017.2 |
| 20260505014019 | 79 | 0 | 0.0 | 0.0 | 0.02 | 0.03 | 0.03 | 88 | 1017.1 |
| 20260505013515 | 80 | 0 | 0.0 | 0.0 | 0.02 | 0.03 | 0.03 | 87 | 1017.0 |
| 20260505013032 | 80 | 0 | 0.0 | 0.0 | 0.02 | 0.03 | 0.03 | 86 | 1017.1 |
| 20260505012514 | 80 | 0 | 0.0 | 0.0 | 0.02 | 0.03 | 0.03 | 85 | 1017.0 |
| 20260505012014 | 81 | 0 | 0.0 | 0.0 | 0.02 | 0.03 | 0.03 | 84 | 1016.8 |
| 20260505011533 | 81 | 0 | 0.0 | 0.0 | 0.02 | 0.03 | 0.03 | 84 | 1016.7 |
| 20260505011014 | 81 | 0 | 0.0 | 0.0 | 0.02 | 0.03 | 0.03 | 85 | 1016.6 |
| 20260505010517 | 81 | 0 | 0.0 | 0.0 | 0.01 | 0.02 | 0.02 | 84 | 1016.6 |
| 20260505010036 | 80 | 0 | 0.0 | 0.0 | 0.00 | 0.01 | 0.01 | 85 | 1016.5 |
| 20260505005517 | 80 | 0 | 0.0 | 0.0 | 0.00 | 0.01 | 0.01 | 84 | 1016.4 |
| 20260505005014 | 80 | 0 | 0.0 | 0.0 | 0.00 | 0.01 | 0.01 | 85 | 1016.4 |
| 20260505004535 | 80 | 0 | 0.0 | 0.0 | 0.00 | 0.01 | 0.01 | 84 | 1016.4 |
| 20260505004016 | 80 | 0 | 0.0 | 0.0 | 0.00 | 0.01 | 0.01 | 84 | 1016.3 |
| 20260505003521 | 80 | 0 | 0.0 | 0.0 | 0.00 | 0.01 | 0.01 | 84 | 1016.3 |
| 20260505003032 | 80 | 0 | 0.0 | 0.0 | 0.00 | 0.01 | 0.01 | 84 | 1016.5 |
| 20260505002518 | 80 | 0 | 0.0 | 0.0 | 0.00 | 0.01 | 0.01 | 85 | 1016.6 |
| 20260505002014 | 79 | 0 | 0.0 | 0.0 | 0.00 | 0.01 | 0.01 | 85 | 1016.6 |
| 20260505001534 | 79 | 0 | 0.0 | 0.0 | 0.00 | 0.01 | 0.01 | 85 | 1016.5 |
| 20260505001014 | 79 | 0 | 0.0 | 0.0 | 0.00 | 0.01 | 0.01 | 85 | 1016.6 |
| 20260505000514 | 79 | 0 | 0.0 | 0.0 | 0.00 | 0.01 | 0.01 | 85 | 1016.6 |
| 20260505000036 | 79 | 0 | 0.0 | 0.0 | 0.00 | 0.01 | 0.01 | 85 | 1016.6 |
| 20260504235514 | 79 | 0 | 0.0 | 0.0 | 0.00 | 0.01 | 0.01 | 85 | 1016.4 |
| 20260504235015 | 79 | 0 | 0.0 | 0.0 | 0.00 | 0.01 | 0.01 | 84 | 1016.4 |
| 20260504234535 | 79 | 0 | 0.0 | 0.0 | 0.00 | 0.01 | 0.01 | 84 | 1016.4 |
| 20260504234014 | 80 | 0 | 0.0 | 0.0 | 0.00 | 0.01 | 0.01 | 84 | 1016.3 |
| 20260504233514 | 80 | 0 | 0.0 | 0.0 | 0.00 | 0.01 | 0.01 | 83 | 1016.3 |
| 20260504233043 | 80 | 0 | 0.0 | 0.0 | 0.00 | 0.01 | 0.01 | 83 | 1016.3 |
| 20260504232515 | 80 | 0 | 0.0 | 0.0 | 0.00 | 0.01 | 0.01 | 82 | 1016.3 |
| 20260504232016 | 81 | 0 | 0.0 | 0.0 | 0.00 | 0.01 | 0.01 | 82 | 1016.1 |
| 20260504231542 | 81 | 0 | 0.0 | 0.0 | 0.00 | 0.01 | 0.01 | 81 | 1016.0 |
| 20260504231014 | 81 | 0 | 0.0 | 0.0 | 0.00 | 0.01 | 0.01 | 81 | 1016.1 |
| 20260504230517 | 81 | 0 | 0.0 | 0.0 | 0.00 | 0.01 | 0.01 | 80 | 1016.0 |
| 20260504230046 | 81 | 0 | 0.0 | 0.0 | 0.00 | 0.01 | 0.01 | 80 | 1015.9 |
| 20260504225519 | 81 | 0 | 0.0 | 0.0 | 0.00 | 0.01 | 0.01 | 79 | 1015.9 |
| 20260504225013 | 81 | 0 | 0.0 | 0.0 | 0.00 | 0.01 | 0.01 | 79 | 1016.0 |
| 20260504224533 | 81 | 0 | 0.0 | 0.0 | 0.00 | 0.01 | 0.01 | 79 | 1015.8 |
| 20260504224016 | 82 | 0 | 0.0 | 2.6 | 0.00 | 0.01 | 0.01 | 79 | 1015.7 |
| 20260504223514 | 82 | 0 | 0.0 | 2.6 | 0.00 | 0.01 | 0.01 | 79 | 1015.6 |
| 20260504223034 | 82 | 0 | 0.0 | 2.6 | 0.00 | 0.01 | 0.01 | 79 | 1015.5 |
| 20260504222513 | 82 | 0 | 0.0 | 0.0 | 0.00 | 0.01 | 0.01 | 79 | 1015.4 |
| 20260504222015 | 82 | 0 | 0.0 | 5.2 | 0.00 | 0.01 | 0.01 | 79 | 1015.3 |
| 20260504221530 | 82 | 0 | 0.9 | 5.2 | 0.00 | 0.01 | 0.01 | 79 | 1015.3 |
| 20260504221014 | 82 | 0 | 0.9 | 7.0 | 0.00 | 0.01 | 0.01 | 78 | 1015.3 |
| 20260504220518 | 83 | 0 | 0.9 | 7.0 | 0.00 | 0.01 | 0.01 | 78 | 1015.3 |
| 20260504220030 | 83 | 0 | 0.0 | 7.0 | 0.00 | 0.01 | 0.01 | 77 | 1015.1 |
| 20260504215514 | 83 | 0 | 0.0 | 7.0 | 0.00 | 0.01 | 0.01 | 76 | 1014.9 |
| 20260504215013 | 83 | 0 | 1.7 | 7.0 | 0.00 | 0.01 | 0.01 | 75 | 1015.0 |
| 20260504214530 | 83 | 0 | 0.0 | 3.5 | 0.00 | 0.01 | 0.01 | 76 | 1015.0 |
| 20260504214016 | 83 | 0 | 0.0 | 3.5 | 0.00 | 0.01 | 0.01 | 76 | 1014.9 |
| 20260504213513 | 84 | 0 | 0.0 | 0.9 | 0.00 | 0.01 | 0.01 | 75 | 1014.9 |
| 20260504213030 | 84 | 0 | 0.0 | 2.6 | 0.00 | 0.01 | 0.01 | 76 | 1014.8 |
| 20260504212521 | 84 | 0 | 0.0 | 7.0 | 0.00 | 0.01 | 0.01 | 76 | 1014.8 |
| 20260504212015 | 84 | 0 | 0.9 | 7.0 | 0.00 | 0.01 | 0.01 | 75 | 1014.8 |
| 20260504211537 | 84 | 0 | 0.0 | 5.2 | 0.00 | 0.01 | 0.01 | 74 | 1014.7 |
| 20260504211014 | 84 | 153 | 0.9 | 5.2 | 0.00 | 0.01 | 0.01 | 74 | 1014.5 |
| 20260504210514 | 83 | 0 | 0.0 | 5.2 | 0.00 | 0.01 | 0.01 | 75 | 1014.6 |
| 20260504210039 | 83 | 0 | 0.0 | 4.3 | 0.01 | 0.01 | 0.01 | 76 | 1014.7 |
| 20260504205514 | 83 | 143 | 0.9 | 7.0 | 0.01 | 0.01 | 0.01 | 76 | 1014.6 |
| 20260504205013 | 83 | 0 | 2.6 | 7.0 | 0.01 | 0.01 | 0.01 | 76 | 1014.5 |
| 20260504204540 | 82 | 107 | 2.6 | 7.0 | 0.01 | 0.01 | 0.01 | 76 | 1014.5 |
| 20260504204016 | 82 | 130 | 2.6 | 7.0 | 0.01 | 0.01 | 0.01 | 77 | 1014.6 |
| 20260504203514 | 82 | 126 | 3.5 | 9.6 | 0.01 | 0.01 | 0.01 | 79 | 1014.7 |
| 20260504203050 | 81 | 108 | 4.3 | 9.6 | 0.01 | 0.01 | 0.01 | 80 | 1014.9 |
| 20260504202514 | 81 | 100 | 3.5 | 9.6 | 0.01 | 0.01 | 0.01 | 84 | 1014.8 |
| 20260504202017 | 81 | 171 | 3.5 | 9.6 | 0.01 | 0.01 | 0.01 | 83 | 1014.9 |
| 20260504201535 | 81 | 133 | 2.6 | 11.3 | 0.01 | 0.01 | 0.01 | 83 | 1014.9 |
| 20260504201023 | 81 | 130 | 4.3 | 11.3 | 0.01 | 0.01 | 0.01 | 82 | 1014.9 |
| 20260504200513 | 83 | 154 | 7.0 | 11.3 | 0.01 | 0.01 | 0.01 | 81 | 1015.0 |
| 20260504200035 | 82 | 128 | 4.3 | 9.6 | 0.00 | 0.00 | 0.00 | 80 | 1014.8 |
| 20260504195517 | 82 | 97 | 4.3 | 11.3 | 0.00 | 0.00 | 0.00 | 79 | 1014.8 |
| 20260504195014 | 83 | 101 | 6.1 | 12.2 | 0.00 | 0.00 | 0.00 | 78 | 1014.9 |
| 20260504194535 | 84 | 128 | 6.1 | 12.2 | 0.00 | 0.00 | 0.00 | 75 | 1014.9 |
| 20260504194014 | 85 | 127 | 6.1 | 11.3 | 0.00 | 0.00 | 0.00 | 74 | 1014.9 |
| 20260504193517 | 85 | 153 | 2.6 | 9.6 | 0.00 | 0.00 | 0.00 | 76 | 1015.0 |
| 20260504193031 | 84 | 137 | 3.5 | 10.4 | 0.00 | 0.00 | 0.00 | 76 | 1015.1 |
| 20260504192516 | 84 | 146 | 3.5 | 10.4 | 0.00 | 0.00 | 0.00 | 76 | 1015.0 |
| 20260504192017 | 84 | 180 | 5.2 | 9.6 | 0.00 | 0.00 | 0.00 | 76 | 1015.0 |
| 20260504191534 | 84 | 156 | 2.6 | 10.4 | 0.00 | 0.00 | 0.00 | 75 | 1014.9 |
| 20260504191017 | 84 | 103 | 5.2 | 10.4 | 0.00 | 0.00 | 0.00 | 77 | 1015.1 |
| 20260504190517 | 84 | 174 | 0.0 | 10.4 | 0.00 | 0.00 | 0.00 | 79 | 1015.1 |
| 20260504190042 | 83 | 146 | 5.2 | 10.4 | 0.00 | 0.00 | 0.00 | 79 | 1015.0 |
| 20260504185516 | 83 | 0 | 4.3 | 9.6 | 0.00 | 0.00 | 0.00 | 81 | 1015.1 |
| 20260504185016 | 82 | 128 | 5.2 | 13.0 | 0.00 | 0.00 | 0.00 | 82 | 1015.1 |
| 20260504184535 | 82 | 115 | 3.5 | 13.0 | 0.00 | 0.00 | 0.00 | 83 | 1015.2 |
| 20260504184016 | 82 | 110 | 7.0 | 11.3 | 0.00 | 0.00 | 0.00 | 82 | 1015.3 |
| 20260504183517 | 82 | 161 | 5.2 | 9.6 | 0.00 | 0.00 | 0.00 | 82 | 1015.4 |
| 20260504183034 | 82 | 109 | 2.6 | 11.3 | 0.00 | 0.00 | 0.00 | 82 | 1015.4 |
| 20260504182526 | 83 | 134 | 4.3 | 12.2 | 0.00 | 0.00 | 0.00 | 79 | 1015.6 |
| 20260504182022 | 84 | 73 | 6.1 | 12.2 | 0.00 | 0.00 | 0.00 | 76 | 1015.6 |
| 20260504181540 | 84 | 131 | 6.1 | 12.2 | 0.00 | 0.00 | 0.00 | 75 | 1015.6 |
| 20260504181016 | 84 | 160 | 5.2 | 8.7 | 0.00 | 0.00 | 0.00 | 78 | 1015.6 |
| 20260504180518 | 83 | 122 | 5.2 | 8.7 | 0.00 | 0.00 | 0.00 | 78 | 1015.8 |
| 20260504180036 | 82 | 0 | 3.5 | 10.4 | 0.00 | 0.00 | 0.00 | 79 | 1015.8 |
| 20260504175516 | 82 | 102 | 4.3 | 10.4 | 0.00 | 0.00 | 0.00 | 81 | 1016.0 |
| 20260504175017 | 82 | 123 | 6.1 | 10.4 | 0.00 | 0.00 | 0.00 | 81 | 1016.2 |
| 20260504174535 | 81 | 92 | 4.3 | 8.7 | 0.00 | 0.00 | 0.00 | 82 | 1016.2 |
| 20260504174017 | 81 | 107 | 5.2 | 8.7 | 0.00 | 0.00 | 0.00 | 82 | 1016.2 |
| 20260504173518 | 82 | 94 | 5.2 | 8.7 | 0.00 | 0.00 | 0.00 | 82 | 1016.3 |
| 20260504173035 | 82 | 128 | 3.5 | 8.7 | 0.00 | 0.00 | 0.00 | 82 | 1016.2 |
| 20260504172517 | 82 | 105 | 4.3 | 10.4 | 0.00 | 0.00 | 0.00 | 83 | 1016.3 |
| 20260504172016 | 82 | 103 | 4.3 | 13.0 | 0.00 | 0.00 | 0.00 | 81 | 1016.6 |
| 20260504171535 | 83 | 120 | 4.3 | 13.0 | 0.00 | 0.00 | 0.00 | 81 | 1016.6 |
| 20260504171018 | 84 | 135 | 7.8 | 12.2 | 0.00 | 0.00 | 0.00 | 77 | 1016.7 |
| 20260504170517 | 84 | 111 | 7.8 | 12.2 | 0.00 | 0.00 | 0.00 | 74 | 1016.6 |
| 20260504151017 | 84 | 107 | 7.8 | 12.2 | 0.00 | 0.00 | 0.00 | 72 | 1017.3 |
| 20260504150516 | 84 | 155 | 5.2 | 12.2 | 0.00 | 0.00 | 0.00 | 71 | 1017.4 |
| 20260504141015 | 84 | 90 | 7.0 | 12.2 | 0.00 | 0.00 | 0.00 | 71 | 1017.0 |
| 20260504140520 | 84 | 133 | 5.2 | 12.2 | 0.00 | 0.00 | 0.00 | 72 | 1017.1 |
| 20260504130516 | 83 | 115 | 7.8 | 11.3 | 0.00 | 0.00 | 0.00 | 73 | 1017.2 |